Airport View

Enter AWOS ICAO identifier for current METAR.

ex. KFNL

KHUT 221152Z 34011KT 10SM OVC048 07/05 A3014 RMK AO2 SLP202 70021 T00670050 10067 20067 53009

22 Apr 2018 12:15

Phone: 620-662-1071

Other Area AWOS: KEWK - KICT - KAAO - KBEC

TAF KHUT 221120Z 2212/2312 35012KT P6SM OVC035 FM222200 01011KT P6SM BKN050 FM230600 35007KT P6SM SKC